Time;durP1;ratioP1;P1;durP2;ratioP2;P2;SDS_P1;SDS_P2;PMS_P1;PMS_P2;Temp;Humidity;BMP_temperature;BMP_pressure;BME280_temperature;BME280_humidity;BME280_pressure;Samples;Min_cycle;Max_cycle;Signal;HPM_P1;HPM_P2
2021/05/16 00:02:41;;;;;;;8.17;6.23;;;;;;;12.85;70.97;98829.19;232565;1174;115148;-67
2021/05/16 00:07:44;;;;;;;7.33;6.55;;;;;;;12.86;71.14;98832.66;232749;1174;115651;-67
2021/05/16 00:12:48;;;;;;;5.20;4.80;;;;;;;12.90;70.80;98828.38;233567;1174;115600;-68
2021/05/16 00:17:52;;;;;;;6.15;5.45;;;;;;;12.91;70.71;98819.28;232995;1174;114732;-67
2021/05/16 00:22:57;;;;;;;5.33;4.43;;;;;;;12.72;70.51;98811.05;232612;1174;116865;-67
2021/05/16 00:28:00;;;;;;;8.65;5.95;;;;;;;12.61;71.16;98809.45;233393;1174;116478;-67
2021/05/16 00:33:03;;;;;;;5.48;4.98;;;;;;;12.70;71.26;98807.84;232522;1175;116961;-68
2021/05/16 00:38:07;;;;;;;6.20;5.50;;;;;;;12.69;71.32;98804.37;232655;1174;116235;-67
2021/05/16 00:43:12;;;;;;;6.67;6.07;;;;;;;12.72;71.61;98800.35;233753;1174;117517;-68
2021/05/16 00:48:16;;;;;;;9.25;6.50;;;;;;;12.79;71.31;98784.83;232777;1169;116273;-67
2021/05/16 00:53:21;;;;;;;5.50;4.80;;;;;;;12.84;71.49;98784.79;232742;1174;116071;-68
2021/05/16 00:58:26;;;;;;;7.00;5.60;;;;;;;12.80;71.60;98775.73;233903;1174;115997;-68
2021/05/16 01:03:32;;;;;;;9.88;6.45;;;;;;;12.61;70.86;98758.66;233084;1174;116178;-67
2021/05/16 01:08:36;;;;;;;6.23;5.63;;;;;;;12.46;71.22;98762.98;233273;1176;116000;-67
2021/05/16 01:13:40;;;;;;;5.70;5.20;;;;;;;12.37;71.13;98769.14;235013;1176;117416;-66
2021/05/16 01:18:44;;;;;;;6.43;5.83;;;;;;;12.29;71.42;98773.16;232824;1174;115906;-67
2021/05/16 01:23:48;;;;;;;5.65;5.15;;;;;;;12.33;70.88;98776.09;234835;1174;115325;-67
2021/05/16 01:28:51;;;;;;;6.53;5.00;;;;;;;12.33;71.53;98768.88;234208;1174;214054;-67
2021/05/16 01:33:54;;;;;;;6.43;5.20;;;;;;;12.33;71.02;98763.53;233723;1174;115581;-67
2021/05/16 01:38:57;;;;;;;7.78;6.03;;;;;;;12.28;71.70;98768.88;233511;1174;115919;-67
2021/05/16 01:44:01;;;;;;;6.20;4.75;;;;;;;12.17;71.49;98767.30;234139;1174;115754;-67
2021/05/16 01:49:05;;;;;;;4.60;4.20;;;;;;;11.98;71.61;98763.55;232435;1174;116928;-67
2021/05/16 01:54:10;;;;;;;4.80;4.43;;;;;;;11.79;71.80;98765.95;232863;1174;115862;-67
2021/05/16 01:59:13;;;;;;;8.38;7.68;;;;;;;11.78;72.58;98775.84;234036;1174;115684;-67
2021/05/16 02:04:18;;;;;;;6.75;6.05;;;;;;;11.83;72.65;98766.23;232728;1174;114812;-68
2021/05/16 02:09:22;;;;;;;6.73;6.05;;;;;;;11.77;73.02;98787.58;232678;1174;115721;-66
2021/05/16 02:14:28;;;;;;;6.47;5.87;;;;;;;11.70;73.05;98781.66;233226;1174;115386;-67
2021/05/16 02:19:32;;;;;;;8.17;7.47;;;;;;;11.69;73.32;98782.73;232873;1174;115403;-66
2021/05/16 02:24:36;;;;;;;7.03;6.43;;;;;;;11.73;73.48;98774.99;232530;1174;115521;-67
2021/05/16 02:29:40;;;;;;;9.65;7.58;;;;;;;11.71;73.65;98769.12;232910;1174;115525;-66
2021/05/16 02:34:44;;;;;;;7.93;6.38;;;;;;;11.61;73.60;98771.80;233192;1174;115320;-66
2021/05/16 02:39:48;;;;;;;9.50;7.15;;;;;;;11.51;73.45;98769.09;232694;1174;115493;-67
2021/05/16 02:44:52;;;;;;;8.47;7.37;;;;;;;11.45;73.92;98776.28;233550;1174;115835;-67
2021/05/16 02:49:56;;;;;;;8.10;7.35;;;;;;;11.35;73.60;98765.58;232870;1174;116128;-67
2021/05/16 02:55:00;;;;;;;13.80;9.60;;;;;;;11.35;74.36;98769.05;232460;1174;116037;-67
2021/05/16 03:00:07;;;;;;;8.88;7.93;;;;;;;11.48;74.10;98770.42;234141;1174;115707;-67
2021/05/16 03:05:11;;;;;;;9.45;7.28;;;;;;;11.50;74.10;98762.95;232930;1174;115344;-67
2021/05/16 03:10:14;;;;;;;8.20;7.33;;;;;;;11.51;74.38;98767.23;233924;1174;115722;-67
2021/05/16 03:15:19;;;;;;;9.35;8.38;;;;;;;11.60;73.85;98764.85;234985;1174;114800;-68
2021/05/16 03:20:23;;;;;;;9.27;8.47;;;;;;;11.78;74.30;98762.48;234980;1174;114745;-64
2021/05/16 03:25:26;;;;;;;9.90;7.67;;;;;;;12.03;74.34;98752.87;234271;1174;115174;-67
2021/05/16 03:30:30;;;;;;;6.13;5.63;;;;;;;12.13;74.32;98755.55;234224;1174;114860;-67
2021/05/16 03:35:34;;;;;;;10.08;8.88;;;;;;;12.20;74.34;98760.63;233610;1170;115698;-66
2021/05/16 03:40:38;;;;;;;12.65;8.93;;;;;;;12.36;74.56;98760.32;233305;1174;115353;-66
2021/05/16 03:45:46;;;;;;;9.20;7.00;;;;;;;12.48;74.63;98766.19;232820;1174;116261;-66
2021/05/16 03:50:49;;;;;;;8.47;7.77;;;;;;;12.62;74.58;98768.28;233117;1168;115348;-66
2021/05/16 03:55:52;;;;;;;7.53;6.87;;;;;;;12.67;74.03;98757.58;233080;1174;116620;-67
2021/05/16 04:00:57;;;;;;;7.13;6.10;;;;;;;12.59;74.36;98732.20;233430;1174;116155;-66
2021/05/16 04:06:01;;;;;;;7.40;5.85;;;;;;;12.59;74.56;98740.22;232678;1175;116774;-67
2021/05/16 04:11:05;;;;;;;7.20;6.53;;;;;;;12.78;74.63;98745.79;232494;1175;117990;-67
2021/05/16 04:16:09;;;;;;;7.50;5.87;;;;;;;12.79;74.45;98750.86;232897;1174;202266;-67
2021/05/16 04:21:13;;;;;;;7.68;6.33;;;;;;;12.81;74.29;98754.07;232753;1174;116313;-67
2021/05/16 04:26:15;;;;;;;6.80;5.13;;;;;;;12.76;74.47;98754.08;232639;1174;115605;-67
2021/05/16 04:31:18;;;;;;;11.03;7.80;;;;;;;12.70;74.59;98749.81;232962;1174;115448;-67
2021/05/16 04:36:22;;;;;;;7.70;6.95;;;;;;;12.62;74.65;98746.89;232701;1174;116145;-67
2021/05/16 04:41:26;;;;;;;3.60;3.30;;;;;;;12.47;74.65;98737.86;232676;1174;115941;-67
2021/05/16 04:46:29;;;;;;;4.80;3.85;;;;;;;12.34;75.03;98734.94;232784;1174;116350;-67
2021/05/16 04:51:32;;;;;;;5.83;4.85;;;;;;;12.32;75.60;98751.23;232712;1174;116036;-67
2021/05/16 04:56:36;;;;;;;11.88;5.38;;;;;;;12.46;75.68;98744.27;233971;1174;115681;-67
2021/05/16 05:01:40;;;;;;;5.08;4.65;;;;;;;12.61;75.38;98758.66;233171;1174;116165;-66
2021/05/16 05:06:44;;;;;;;6.78;5.78;;;;;;;12.89;75.29;98765.25;233197;1174;115582;-67
2021/05/16 05:11:48;;;;;;;7.40;5.55;;;;;;;13.17;75.50;98758.48;234688;1174;115145;-67
2021/05/16 05:16:50;;;;;;;8.05;5.75;;;;;;;13.39;75.09;98748.20;234970;1174;115807;-69
2021/05/16 05:21:54;;;;;;;5.53;4.87;;;;;;;14.20;74.66;98750.27;235093;1174;115124;-65
2021/05/16 05:26:57;;;;;;;3.45;3.15;;;;;;;14.65;73.63;98751.73;234524;1174;116972;-67
2021/05/16 05:32:00;;;;;;;5.17;4.57;;;;;;;14.67;73.41;98751.45;232954;1174;116428;-65
2021/05/16 05:37:04;;;;;;;5.43;4.93;;;;;;;15.05;72.85;98753.12;232407;1174;115479;-68
2021/05/16 05:42:07;;;;;;;5.43;5.03;;;;;;;14.86;72.44;98741.55;232485;1174;114991;-65
2021/05/16 05:47:11;;;;;;;5.85;5.35;;;;;;;14.55;72.95;98746.47;233176;1174;216207;-68
2021/05/16 05:52:14;;;;;;;6.50;6.00;;;;;;;15.42;72.24;98743.51;233074;1174;115078;-65
2021/05/16 05:57:17;;;;;;;5.90;5.10;;;;;;;15.45;72.22;98745.62;233823;1175;115033;-64
2021/05/16 06:02:24;;;;;;;5.25;4.85;;;;;;;16.11;71.16;98731.18;235060;1174;115187;-62
2021/05/16 06:07:28;;;;;;;10.40;6.25;;;;;;;18.26;69.17;98729.05;235069;1174;115247;-62
2021/05/16 06:12:32;;;;;;;7.55;5.70;;;;;;;19.62;66.86;98740.57;235108;1174;115788;-65
2021/05/16 06:17:35;;;;;;;4.85;4.48;;;;;;;20.35;64.81;98735.22;233287;1174;116014;-66
2021/05/16 06:22:38;;;;;;;4.18;3.80;;;;;;;20.01;64.64;98733.39;233218;1174;115636;-66
2021/05/16 06:27:41;;;;;;;6.63;4.77;;;;;;;19.59;63.98;98730.39;232639;1174;116516;-65
2021/05/16 06:32:45;;;;;;;5.45;4.55;;;;;;;19.95;63.94;98726.55;232372;1174;116242;-66
2021/05/16 06:37:48;;;;;;;4.90;4.50;;;;;;;20.05;63.41;98731.63;232900;1174;116521;-65
2021/05/16 06:42:53;;;;;;;3.70;3.40;;;;;;;19.90;62.81;98732.91;232775;1174;119772;-66
2021/05/16 06:47:58;;;;;;;4.75;4.30;;;;;;;19.17;63.02;98727.33;233630;1174;115540;-65
2021/05/16 06:53:02;;;;;;;5.20;4.55;;;;;;;18.78;62.90;98722.78;233728;1174;117409;-66
2021/05/16 06:58:06;;;;;;;5.38;4.88;;;;;;;18.70;63.56;98717.34;232866;1174;115731;-65
2021/05/16 07:03:09;;;;;;;7.73;6.10;;;;;;;18.84;63.83;98705.33;232704;1174;115179;-66
2021/05/16 07:08:13;;;;;;;6.15;5.60;;;;;;;19.14;63.30;98708.25;235145;1174;115427;-66
2021/05/16 07:13:17;;;;;;;6.07;5.30;;;;;;;19.41;62.87;98707.16;234047;1174;115389;-66
2021/05/16 07:18:20;;;;;;;5.90;5.13;;;;;;;19.49;63.02;98709.87;234921;1174;116549;-66
2021/05/16 07:23:22;;;;;;;5.75;5.13;;;;;;;19.58;62.79;98701.77;234649;1174;114933;-66
2021/05/16 07:28:25;;;;;;;5.33;4.83;;;;;;;19.80;62.42;98714.34;235141;1174;115591;-67
2021/05/16 07:33:30;;;;;;;5.15;4.70;;;;;;;20.23;61.04;98710.73;235132;1174;115410;-67
2021/05/16 07:38:34;;;;;;;3.80;3.45;;;;;;;20.40;61.32;98705.31;234602;1174;115104;-67
2021/05/16 07:43:37;;;;;;;2.98;2.70;;;;;;;20.66;59.77;98711.41;234163;1174;115605;-66
2021/05/16 07:48:41;;;;;;;3.10;2.90;;;;;;;20.42;59.50;98711.98;234270;1175;115231;-66
2021/05/16 07:53:45;;;;;;;3.93;3.43;;;;;;;20.45;59.85;98715.97;232355;1174;115841;-66
2021/05/16 07:58:49;;;;;;;3.83;3.50;;;;;;;20.11;59.59;98731.15;233390;1174;115410;-65
2021/05/16 08:03:52;;;;;;;5.55;4.10;;;;;;;19.88;59.46;98727.03;232995;1174;115989;-65
2021/05/16 08:08:56;;;;;;;5.60;4.10;;;;;;;20.09;60.06;98732.59;232667;1176;116234;-65
2021/05/16 08:14:01;;;;;;;4.27;3.83;;;;;;;20.22;59.53;98722.67;233293;1176;116134;-68
2021/05/16 08:19:04;;;;;;;5.25;4.15;;;;;;;20.11;58.94;98728.45;232798;1174;115747;-67
2021/05/16 08:24:12;;;;;;;5.30;4.85;;;;;;;19.83;59.16;98724.52;233461;1174;114674;-67
2021/05/16 08:29:16;;;;;;;11.05;5.75;;;;;;;19.76;59.14;98730.40;232748;1174;115838;-67
2021/05/16 08:34:18;;;;;;;3.83;3.53;;;;;;;20.10;60.24;98724.16;233205;1174;116093;-67
2021/05/16 08:39:25;;;;;;;4.38;3.50;;;;;;;20.29;59.31;98720.27;232786;1173;115978;-66
2021/05/16 08:44:33;;;;;;;6.10;5.50;;;;;;;20.25;59.01;98728.23;233120;1174;116568;-66
2021/05/16 08:49:36;;;;;;;5.48;4.73;;;;;;;20.11;58.09;98733.06;233314;1175;116710;-66
2021/05/16 08:54:41;;;;;;;5.23;4.83;;;;;;;20.08;58.24;98728.30;233347;1171;117355;-67
2021/05/16 09:00:06;;;;;;;6.70;4.67;;;;;;;19.83;58.41;98722.61;233503;1176;116160;-67
2021/05/16 09:05:28;;;;;;;6.75;5.80;;;;;;;19.74;58.68;98729.92;233580;1174;115958;-67
2021/05/16 09:10:34;;;;;;;4.98;4.58;;;;;;;19.68;58.88;98723.08;232623;1174;116699;-67
2021/05/16 09:15:39;;;;;;;5.00;4.55;;;;;;;19.46;58.94;98731.33;233378;1176;116460;-67
2021/05/16 09:20:42;;;;;;;4.28;3.88;;;;;;;19.65;59.41;98739.94;234994;1170;115682;-67
2021/05/16 09:25:46;;;;;;;5.78;4.05;;;;;;;20.00;58.67;98737.21;234944;1174;116454;-67
2021/05/16 09:30:50;;;;;;;6.18;3.93;;;;;;;20.05;58.81;98745.16;234984;1174;116558;-67
2021/05/16 09:35:55;;;;;;;3.40;3.10;;;;;;;19.73;58.47;98746.47;235009;1174;117136;-68
2021/05/16 09:40:59;;;;;;;4.53;3.43;;;;;;;19.45;58.05;98735.14;234290;1176;117244;-68
2021/05/16 09:46:08;;;;;;;2.57;2.37;;;;;;;18.81;57.87;98754.55;233878;1174;117052;-66
2021/05/16 09:51:22;;;;;;;4.20;2.53;;;;;;;18.24;58.90;98748.23;233395;1174;115606;-67
2021/05/16 09:56:32;;;;;;;2.73;2.53;;;;;;;17.65;60.32;98739.42;233042;1167;115539;-70
2021/05/16 10:01:40;;;;;;;6.90;3.38;;;;;;;17.31;61.48;98736.40;234604;1174;115914;-71
2021/05/16 10:06:43;;;;;;;4.20;3.88;;;;;;;17.33;62.22;98731.51;233649;1167;116152;-70
2021/05/16 10:11:47;;;;;;;4.90;4.50;;;;;;;17.71;63.19;98734.72;232392;1174;116525;-66
2021/05/16 10:16:52;;;;;;;5.20;4.68;;;;;;;18.13;63.56;98731.50;232608;1174;116399;-67
2021/05/16 10:22:07;;;;;;;3.60;3.40;;;;;;;18.42;63.11;98724.82;233240;1174;115390;-67
2021/05/16 10:27:43;;;;;;;4.83;4.43;;;;;;;18.71;62.77;98727.83;233303;1174;115899;-67
2021/05/16 10:32:51;;;;;;;2.75;2.55;;;;;;;18.86;62.08;98726.62;232972;1174;115021;-67
2021/05/16 10:37:55;;;;;;;;;;;;;;;18.79;61.72;98732.47;233396;1174;114703;-67
2021/05/16 10:43:25;;;;;;;4.00;3.65;;;;;;;18.49;61.20;98741.38;234788;1174;103398;-67
2021/05/16 10:48:34;;;;;;;3.38;3.08;;;;;;;17.96;60.74;98754.88;233229;1174;115899;-67
2021/05/16 10:53:42;;;;;;;3.23;3.03;;;;;;;17.31;61.24;98764.13;234182;1168;115285;-66
2021/05/16 10:58:49;;;;;;;3.10;2.85;;;;;;;16.82;61.78;98764.86;233833;1174;116461;-66
2021/05/16 11:03:56;;;;;;;1.50;1.40;;;;;;;16.35;62.71;98763.30;233788;1167;115674;-66
2021/05/16 11:09:02;;;;;;;5.33;2.18;;;;;;;15.99;63.16;98784.59;234917;1174;115050;-66
2021/05/16 11:14:18;;;;;;;5.05;2.45;;;;;;;15.76;63.77;98781.72;232638;1174;116864;-66
2021/05/16 11:19:26;;;;;;;4.63;4.20;;;;;;;15.67;64.71;98778.09;234931;1175;117601;-67
2021/05/16 11:24:41;;;;;;;5.40;5.00;;;;;;;15.75;65.26;98772.06;235111;1174;117132;-67
2021/05/16 11:29:45;;;;;;;4.95;4.48;;;;;;;15.79;65.77;98765.02;235145;1174;117016;-68
2021/05/16 11:35:17;;;;;;;5.23;4.88;;;;;;;15.97;66.43;98766.06;235127;1174;116196;-68
2021/05/16 11:40:28;;;;;;;4.78;4.25;;;;;;;16.20;66.82;98758.99;235037;1174;115846;-68
2021/05/16 11:45:36;;;;;;;5.00;4.58;;;;;;;16.50;66.65;98750.38;235039;1174;115095;-69
2021/05/16 11:50:49;;;;;;;4.93;4.10;;;;;;;16.70;66.82;98756.50;234822;1174;115876;-65
2021/05/16 11:55:53;;;;;;;3.58;3.38;;;;;;;16.92;66.45;98758.48;234722;1174;115886;-66
2021/05/16 12:01:00;;;;;;;10.85;3.28;;;;;;;17.05;66.69;98753.10;232890;1167;115685;-66
2021/05/16 12:06:10;;;;;;;3.18;2.98;;;;;;;17.24;66.68;98746.78;234208;1174;115046;-67
2021/05/16 12:11:15;;;;;;;2.40;2.20;;;;;;;17.34;66.26;98755.45;232677;1174;116452;-65
2021/05/16 12:16:22;;;;;;;1.80;1.70;;;;;;;17.42;66.23;98751.25;232903;1174;116390;-65
2021/05/16 12:21:26;;;;;;;1.83;1.80;;;;;;;17.69;65.80;98745.80;234044;1174;116136;-65
2021/05/16 12:26:33;;;;;;;1.78;1.70;;;;;;;18.00;65.75;98739.68;233220;1170;115996;-65
2021/05/16 12:31:38;;;;;;;1.85;1.40;;;;;;;18.09;65.06;98744.00;233199;1171;116988;-66
2021/05/16 12:36:54;;;;;;;1.47;1.37;;;;;;;18.12;64.53;98731.80;232810;1174;116641;-66
2021/05/16 12:42:00;;;;;;;1.15;1.15;;;;;;;18.04;64.80;98727.15;232923;1174;215661;-66
2021/05/16 12:47:04;;;;;;;0.97;0.90;;;;;;;18.05;64.03;98726.84;232731;1174;115577;-67
2021/05/16 12:52:09;;;;;;;1.17;1.17;;;;;;;18.09;64.06;98721.63;234126;1174;117332;-68
2021/05/16 12:57:21;;;;;;;2.77;1.67;;;;;;;18.15;64.21;98723.90;233052;1174;115530;-68
2021/05/16 13:02:28;;;;;;;1.20;1.20;;;;;;;18.23;63.61;98741.24;233571;1174;116935;-67
2021/05/16 13:07:48;;;;;;;1.20;1.05;;;;;;;18.15;63.24;98736.59;233544;1174;115819;-68
2021/05/16 13:12:52;;;;;;;1.53;0.73;;;;;;;18.30;62.56;98741.61;232742;1174;114708;-66
2021/05/16 13:17:55;;;;;;;3.00;0.60;;;;;;;18.40;62.39;98743.22;232334;1174;116264;-67
2021/05/16 13:23:21;;;;;;;0.93;0.80;;;;;;;18.35;62.35;98744.15;234332;1174;115030;-67
2021/05/16 13:28:28;;;;;;;2.03;1.03;;;;;;;18.18;61.67;98730.58;233499;1174;115526;-66
2021/05/16 13:33:38;;;;;;;0.70;0.70;;;;;;;18.08;62.16;98738.91;233451;1174;117072;-65
2021/05/16 13:38:42;;;;;;;0.70;0.70;;;;;;;18.01;61.44;98733.98;235097;1174;114561;-67
2021/05/16 13:43:46;;;;;;;0.98;0.80;;;;;;;18.09;61.09;98741.30;235054;1174;115247;-67
2021/05/16 13:48:50;;;;;;;0.63;0.63;;;;;;;18.10;61.09;98734.02;234569;1174;115914;-68
2021/05/16 13:53:53;;;;;;;0.85;0.85;;;;;;;18.24;60.65;98723.16;234989;1174;114892;-69
2021/05/16 13:58:56;;;;;;;1.20;0.90;;;;;;;18.30;60.19;98711.93;234471;1174;115954;-68
2021/05/16 14:03:59;;;;;;;0.85;0.73;;;;;;;18.16;60.43;98712.00;233843;1167;115432;-68
2021/05/16 14:09:05;;;;;;;0.90;0.90;;;;;;;18.30;60.00;98705.73;234094;1174;115412;-68
2021/05/16 14:14:09;;;;;;;1.20;1.20;;;;;;;18.48;60.24;98712.79;234049;1174;115817;-64
2021/05/16 14:19:12;;;;;;;0.80;0.80;;;;;;;18.61;59.37;98711.14;233559;1174;115594;-66
2021/05/16 14:24:18;;;;;;;1.38;1.33;;;;;;;18.68;59.45;98708.76;232638;1173;116247;-66
2021/05/16 14:29:21;;;;;;;2.78;1.33;;;;;;;18.77;58.62;98714.98;232974;1174;115560;-67
2021/05/16 14:34:25;;;;;;;1.70;1.23;;;;;;;18.69;58.38;98718.45;232359;1174;117640;-66
2021/05/16 14:39:29;;;;;;;1.15;1.15;;;;;;;18.57;57.86;98715.53;232774;1171;115628;-66
2021/05/16 14:44:33;;;;;;;1.13;1.13;;;;;;;18.48;57.56;98718.98;233094;1174;115707;-66
2021/05/16 14:49:36;;;;;;;1.07;1.07;;;;;;;18.29;57.19;98713.03;233557;1172;115795;-65
2021/05/16 14:54:38;;;;;;;1.35;1.25;;;;;;;18.11;57.38;98708.64;233137;1173;115387;-62
2021/05/16 14:59:42;;;;;;;1.43;1.35;;;;;;;18.12;58.11;98700.23;232537;1174;115225;-65
2021/05/16 15:04:44;;;;;;;1.50;1.40;;;;;;;18.05;57.43;98701.77;233690;1174;115899;-68
2021/05/16 15:09:47;;;;;;;1.53;1.40;;;;;;;18.04;57.25;98698.28;232455;1174;116073;-68
2021/05/16 15:14:53;;;;;;;2.40;1.55;;;;;;;18.07;57.50;98686.08;232468;1171;115912;-67
2021/05/16 15:19:56;;;;;;;1.88;1.48;;;;;;;18.05;57.91;98685.59;233553;1168;115753;-68
2021/05/16 15:24:59;;;;;;;1.73;1.63;;;;;;;17.96;57.63;98684.77;233101;1174;116852;-67
2021/05/16 15:30:04;;;;;;;1.40;1.30;;;;;;;17.87;58.03;98689.30;232645;1176;116539;-67
2021/05/16 15:35:10;;;;;;;1.20;1.20;;;;;;;17.80;57.79;98685.14;232451;1174;115241;-67
2021/05/16 15:40:14;;;;;;;1.40;1.30;;;;;;;17.71;58.18;98678.91;235052;1167;116239;-63
2021/05/16 15:45:17;;;;;;;0.90;0.90;;;;;;;17.67;57.64;98672.55;235073;1174;115528;-65
2021/05/16 15:50:26;;;;;;;1.35;1.23;;;;;;;17.61;57.63;98683.72;235099;1174;115356;-65
2021/05/16 15:55:40;;;;;;;1.20;1.00;;;;;;;17.58;57.37;98679.73;234880;1174;116546;-66
2021/05/16 16:00:44;;;;;;;1.23;0.78;;;;;;;17.64;57.99;98678.52;233355;1174;115154;-64
2021/05/16 16:05:48;;;;;;;0.90;0.90;;;;;;;17.70;57.32;98671.93;232517;1174;115300;-65
2021/05/16 16:10:52;;;;;;;1.20;0.75;;;;;;;17.64;57.64;98669.63;233237;1174;115626;-64
2021/05/16 16:15:55;;;;;;;0.50;0.50;;;;;;;17.58;57.51;98670.84;233270;1174;116176;-65
2021/05/16 16:21:00;;;;;;;0.83;0.83;;;;;;;17.46;56.88;98666.00;232565;1174;116087;-67
2021/05/16 16:26:03;;;;;;;0.50;0.50;;;;;;;17.36;56.42;98664.36;232563;1174;116039;-64
2021/05/16 16:31:08;;;;;;;1.38;0.93;;;;;;;17.29;56.85;98665.88;233244;1171;116431;-62
2021/05/16 16:36:12;;;;;;;0.40;0.40;;;;;;;17.13;57.09;98655.44;232622;1175;116068;-64
2021/05/16 16:41:17;;;;;;;0.58;0.58;;;;;;;17.03;57.03;98647.60;232714;1175;116239;-64
2021/05/16 16:46:25;;;;;;;0.38;0.38;;;;;;;16.89;57.37;98649.52;233017;1176;116718;-64
2021/05/16 16:51:29;;;;;;;2.13;1.00;;;;;;;16.77;57.76;98654.64;232626;1175;116737;-65
2021/05/16 16:56:33;;;;;;;0.97;0.70;;;;;;;16.66;58.00;98651.35;233149;1174;116227;-67
2021/05/16 17:01:36;;;;;;;0.65;0.65;;;;;;;16.50;58.14;98650.84;232826;1174;116183;-65
2021/05/16 17:06:39;;;;;;;0.83;0.83;;;;;;;16.44;57.84;98643.97;233591;1174;114942;-67
2021/05/16 17:11:42;;;;;;;0.30;0.30;;;;;;;16.45;58.13;98642.88;233388;1172;115868;-66
2021/05/16 17:16:46;;;;;;;0.50;0.50;;;;;;;16.39;58.25;98637.89;234144;1168;115823;-67
2021/05/16 17:21:50;;;;;;;0.75;0.75;;;;;;;16.44;58.42;98643.17;232752;1174;116344;-65
2021/05/16 17:26:54;;;;;;;1.30;0.43;;;;;;;16.28;58.55;98642.66;232743;1174;115118;-66
2021/05/16 17:31:58;;;;;;;1.10;1.10;;;;;;;16.17;58.84;98649.34;233144;1174;115587;-67
2021/05/16 17:37:03;;;;;;;1.27;1.20;;;;;;;16.16;58.67;98650.44;233154;1174;115276;-65
2021/05/16 17:42:06;;;;;;;1.10;1.10;;;;;;;16.08;59.33;98653.80;235103;1174;115397;-65
2021/05/16 17:47:10;;;;;;;1.25;1.15;;;;;;;16.01;59.33;98658.77;233259;1174;115585;-65
2021/05/16 17:52:13;;;;;;;1.15;1.10;;;;;;;15.91;59.60;98651.67;234213;1174;114815;-65
2021/05/16 17:57:17;;;;;;;1.00;0.90;;;;;;;15.72;60.41;98649.05;233800;1174;116011;-66
2021/05/16 18:02:20;;;;;;;1.03;0.98;;;;;;;15.53;60.81;98659.02;233412;1167;115229;-65
2021/05/16 18:07:24;;;;;;;1.73;1.03;;;;;;;15.39;61.16;98653.58;234093;1174;118495;-65
2021/05/16 18:12:27;;;;;;;1.27;1.27;;;;;;;15.33;61.53;98652.06;233107;1169;115886;-65
2021/05/16 18:17:31;;;;;;;1.75;1.10;;;;;;;15.20;61.59;98660.06;233098;1174;115089;-65
2021/05/16 18:22:35;;;;;;;1.15;1.10;;;;;;;14.95;61.88;98658.55;233025;1174;115363;-68
2021/05/16 18:27:38;;;;;;;1.43;1.07;;;;;;;14.73;62.16;98659.08;233628;1174;115884;-67
2021/05/16 18:32:42;;;;;;;1.43;1.10;;;;;;;14.51;62.66;98661.50;233558;1174;116982;-65
2021/05/16 18:37:45;;;;;;;1.10;1.10;;;;;;;14.31;63.45;98662.52;233111;1174;116236;-68
2021/05/16 18:42:49;;;;;;;3.70;1.40;;;;;;;14.15;63.31;98673.38;233135;1174;117319;-67
2021/05/16 18:47:53;;;;;;;1.63;1.38;;;;;;;13.98;63.97;98669.55;232849;1174;117258;-68
2021/05/16 18:52:57;;;;;;;1.50;1.40;;;;;;;13.68;63.94;98671.42;232937;1174;116257;-68
2021/05/16 18:58:04;;;;;;;4.65;1.53;;;;;;;13.43;64.56;98679.66;232685;1175;116239;-68
2021/05/16 19:03:08;;;;;;;1.50;1.40;;;;;;;13.17;64.77;98680.88;232680;1174;116656;-67
2021/05/16 19:08:11;;;;;;;2.88;1.00;;;;;;;12.93;64.84;98686.87;232789;1174;116540;-67
2021/05/16 19:13:16;;;;;;;1.78;1.68;;;;;;;12.77;65.74;98688.83;233699;1174;115730;-67
2021/05/16 19:18:21;;;;;;;2.13;1.30;;;;;;;12.68;66.33;98697.69;232626;1174;115532;-67
2021/05/16 19:23:27;;;;;;;2.25;1.90;;;;;;;12.45;66.38;98693.77;233881;1174;115555;-68
2021/05/16 19:28:30;;;;;;;1.15;1.10;;;;;;;12.25;66.75;98699.94;233086;1174;114641;-68
2021/05/16 19:33:36;;;;;;;2.00;1.90;;;;;;;12.08;67.02;98705.59;232507;1174;115804;-68
2021/05/16 19:38:41;;;;;;;1.30;1.20;;;;;;;11.95;67.13;98716.01;233914;1174;115109;-67
2021/05/16 19:43:46;;;;;;;1.95;1.85;;;;;;;11.74;67.48;98717.86;235162;1174;115748;-65
2021/05/16 19:48:50;;;;;;;1.95;1.85;;;;;;;11.58;67.67;98726.94;235208;1174;115570;-65
2021/05/16 19:53:53;;;;;;;2.03;1.93;;;;;;;11.42;68.20;98729.58;235241;1175;115967;-65
2021/05/16 19:58:56;;;;;;;3.18;2.28;;;;;;;11.27;68.16;98726.89;235198;1176;116176;-65
2021/05/16 20:04:00;;;;;;;3.57;3.00;;;;;;;11.12;68.51;98735.64;233368;1174;116231;-67
2021/05/16 20:09:07;;;;;;;3.90;2.33;;;;;;;10.96;69.08;98743.88;234229;1174;116162;-67
2021/05/16 20:14:12;;;;;;;5.33;2.90;;;;;;;10.77;69.37;98741.64;233621;1171;117104;-66
2021/05/16 20:19:17;;;;;;;3.73;2.93;;;;;;;10.66;69.52;98744.54;233666;1174;116547;-67
2021/05/16 20:24:21;;;;;;;4.85;3.43;;;;;;;10.57;69.80;98746.08;232771;1174;116408;-67
2021/05/16 20:29:32;;;;;;;5.90;4.30;;;;;;;10.52;70.61;98746.05;232619;1174;116711;-67
2021/05/16 20:34:37;;;;;;;5.90;4.70;;;;;;;10.48;71.04;98745.77;233335;1174;116395;-67
2021/05/16 20:39:40;;;;;;;5.97;4.87;;;;;;;10.54;71.38;98741.27;232585;1174;115471;-67
2021/05/16 20:44:45;;;;;;;5.50;4.95;;;;;;;10.59;70.81;98743.96;232703;1171;115546;-67
2021/05/16 20:49:50;;;;;;;4.23;3.00;;;;;;;10.46;70.75;98737.22;233172;1170;116098;-68
2021/05/16 20:54:54;;;;;;;4.80;4.30;;;;;;;10.37;71.72;98739.59;232714;1174;116348;-67
2021/05/16 21:00:04;;;;;;;4.58;3.70;;;;;;;10.33;71.35;98745.69;232908;1167;116670;-67
2021/05/16 21:05:09;;;;;;;7.03;5.03;;;;;;;10.29;71.21;98742.73;233053;1174;116322;-67
2021/05/16 21:10:15;;;;;;;5.97;5.37;;;;;;;10.27;71.99;98747.51;232750;1174;115814;-67
2021/05/16 21:15:19;;;;;;;4.15;3.80;;;;;;;10.18;71.18;98746.34;232636;1175;115807;-67
2021/05/16 21:20:24;;;;;;;5.63;5.05;;;;;;;10.07;72.21;98744.69;233200;1174;116075;-67
2021/05/16 21:25:30;;;;;;;4.98;4.53;;;;;;;10.06;72.01;98745.74;233974;1174;115917;-67
2021/05/16 21:30:35;;;;;;;;;;;;;;;10.01;71.47;98737.71;233819;1174;115225;-67
2021/05/16 21:35:39;;;;;;;4.30;3.33;;;;;;;9.85;71.82;98741.30;234991;1174;102967;-67
2021/05/16 21:40:43;;;;;;;3.50;2.87;;;;;;;9.71;72.26;98744.39;234082;1174;115635;-67
2021/05/16 21:45:46;;;;;;;6.83;5.68;;;;;;;9.63;72.24;98744.84;233270;1174;115862;-67
2021/05/16 21:50:50;;;;;;;11.55;5.53;;;;;;;9.65;72.24;98748.06;235008;1174;114955;-67
2021/05/16 21:55:53;;;;;;;8.48;6.20;;;;;;;9.71;73.17;98757.70;235022;1174;115130;-65
2021/05/16 22:00:56;;;;;;;6.70;5.18;;;;;;;9.75;72.97;98747.36;235040;1174;115810;-66
2021/05/16 22:06:02;;;;;;;6.40;5.68;;;;;;;9.82;73.26;98763.09;235017;1174;115120;-67
2021/05/16 22:11:05;;;;;;;5.50;5.00;;;;;;;9.86;73.31;98753.55;233431;1175;115078;-66
2021/05/16 22:16:09;;;;;;;4.30;3.93;;;;;;;9.81;72.76;98751.64;234460;1167;114994;-66
2021/05/16 22:21:12;;;;;;;6.70;5.93;;;;;;;9.76;73.62;98746.30;233644;1174;114856;-67
2021/05/16 22:26:21;;;;;;;8.03;6.13;;;;;;;9.74;73.52;98743.89;232609;1174;115413;-66
2021/05/16 22:31:25;;;;;;;9.60;5.98;;;;;;;9.78;73.71;98752.17;232744;1174;114993;-66
2021/05/16 22:36:29;;;;;;;8.63;5.10;;;;;;;9.71;73.91;98747.05;233583;1174;116137;-67
2021/05/16 22:41:33;;;;;;;7.23;5.48;;;;;;;9.67;74.05;98745.95;232778;1174;116490;-66
2021/05/16 22:46:37;;;;;;;5.70;5.20;;;;;;;9.69;74.02;98741.18;232738;1174;115370;-66
2021/05/16 22:51:43;;;;;;;7.05;6.35;;;;;;;9.75;74.22;98737.52;232915;1174;116244;-66
2021/05/16 22:56:46;;;;;;;5.63;5.13;;;;;;;9.79;74.38;98735.92;232852;1174;115885;-66
2021/05/16 23:01:50;;;;;;;6.05;5.55;;;;;;;9.82;74.31;98726.63;232732;1174;115892;-66
2021/05/16 23:06:54;;;;;;;5.45;4.93;;;;;;;9.83;73.93;98719.45;232743;1174;115536;-66
2021/05/16 23:11:57;;;;;;;7.53;5.37;;;;;;;9.83;74.07;98714.13;233520;1174;115291;-67
2021/05/16 23:17:01;;;;;;;4.93;4.53;;;;;;;9.80;74.69;98716.23;232641;1174;115565;-67
2021/05/16 23:22:06;;;;;;;11.28;5.58;;;;;;;9.74;74.51;98708.49;232954;1174;115077;-66